sensor_id;sensor_type;location;lat;lon;timestamp;P1;durP1;ratioP1;P2;durP2;ratioP2
4122;SDS011;2075;51.062;6.920;2023-06-14T00:01:09;8.60;;;6.80;;
4122;SDS011;2075;51.062;6.920;2023-06-14T00:03:58;8.33;;;6.87;;
4122;SDS011;2075;51.062;6.920;2023-06-14T00:06:44;9.70;;;6.43;;
4122;SDS011;2075;51.062;6.920;2023-06-14T00:09:30;10.50;;;6.70;;
4122;SDS011;2075;51.062;6.920;2023-06-14T00:12:15;7.40;;;6.60;;
4122;SDS011;2075;51.062;6.920;2023-06-14T00:15:00;8.03;;;6.90;;
4122;SDS011;2075;51.062;6.920;2023-06-14T00:17:46;13.07;;;6.60;;
4122;SDS011;2075;51.062;6.920;2023-06-14T00:20:32;14.17;;;7.20;;
4122;SDS011;2075;51.062;6.920;2023-06-14T00:23:18;10.80;;;7.50;;
4122;SDS011;2075;51.062;6.920;2023-06-14T00:26:04;10.60;;;7.20;;
4122;SDS011;2075;51.062;6.920;2023-06-14T00:28:49;8.33;;;7.47;;
4122;SDS011;2075;51.062;6.920;2023-06-14T00:31:34;8.27;;;7.43;;
4122;SDS011;2075;51.062;6.920;2023-06-14T00:34:20;10.67;;;7.20;;
4122;SDS011;2075;51.062;6.920;2023-06-14T00:37:07;7.53;;;6.70;;
4122;SDS011;2075;51.062;6.920;2023-06-14T00:39:53;12.73;;;6.90;;
4122;SDS011;2075;51.062;6.920;2023-06-14T00:42:38;8.43;;;6.90;;
4122;SDS011;2075;51.062;6.920;2023-06-14T00:45:23;7.67;;;6.87;;
4122;SDS011;2075;51.062;6.920;2023-06-14T00:48:09;9.40;;;7.37;;
4122;SDS011;2075;51.062;6.920;2023-06-14T00:50:55;10.03;;;7.43;;
4122;SDS011;2075;51.062;6.920;2023-06-14T00:53:43;10.77;;;7.50;;
4122;SDS011;2075;51.062;6.920;2023-06-14T00:56:30;7.60;;;6.90;;
4122;SDS011;2075;51.062;6.920;2023-06-14T00:59:16;12.80;;;7.90;;
4122;SDS011;2075;51.062;6.920;2023-06-14T01:02:01;7.67;;;6.87;;
4122;SDS011;2075;51.062;6.920;2023-06-14T01:04:47;7.67;;;6.87;;
4122;SDS011;2075;51.062;6.920;2023-06-14T01:07:41;11.40;;;8.07;;
4122;SDS011;2075;51.062;6.920;2023-06-14T01:10:41;8.87;;;6.87;;
4122;SDS011;2075;51.062;6.920;2023-06-14T01:13:36;10.80;;;7.20;;
4122;SDS011;2075;51.062;6.920;2023-06-14T01:16:23;9.93;;;7.40;;
4122;SDS011;2075;51.062;6.920;2023-06-14T01:19:11;10.43;;;7.90;;
4122;SDS011;2075;51.062;6.920;2023-06-14T01:21:58;8.10;;;7.30;;
4122;SDS011;2075;51.062;6.920;2023-06-14T01:24:47;8.70;;;7.27;;
4122;SDS011;2075;51.062;6.920;2023-06-14T01:27:32;9.70;;;8.07;;
4122;SDS011;2075;51.062;6.920;2023-06-14T01:30:18;10.03;;;7.90;;
4122;SDS011;2075;51.062;6.920;2023-06-14T01:33:05;9.27;;;7.30;;
4122;SDS011;2075;51.062;6.920;2023-06-14T01:35:51;13.03;;;7.67;;
4122;SDS011;2075;51.062;6.920;2023-06-14T01:38:37;9.50;;;7.00;;
4122;SDS011;2075;51.062;6.920;2023-06-14T01:41:24;9.00;;;7.00;;
4122;SDS011;2075;51.062;6.920;2023-06-14T01:44:12;8.83;;;7.10;;
4122;SDS011;2075;51.062;6.920;2023-06-14T01:46:59;9.73;;;7.20;;
4122;SDS011;2075;51.062;6.920;2023-06-14T01:49:45;8.20;;;7.40;;
4122;SDS011;2075;51.062;6.920;2023-06-14T01:52:32;8.87;;;7.70;;
4122;SDS011;2075;51.062;6.920;2023-06-14T01:55:17;9.07;;;7.60;;
4122;SDS011;2075;51.062;6.920;2023-06-14T01:58:07;8.10;;;7.30;;
4122;SDS011;2075;51.062;6.920;2023-06-14T02:00:52;9.90;;;8.07;;
4122;SDS011;2075;51.062;6.920;2023-06-14T02:03:39;8.17;;;7.33;;
4122;SDS011;2075;51.062;6.920;2023-06-14T02:06:26;8.83;;;7.70;;
4122;SDS011;2075;51.062;6.920;2023-06-14T02:09:11;9.27;;;7.20;;
4122;SDS011;2075;51.062;6.920;2023-06-14T02:11:57;8.53;;;7.50;;
4122;SDS011;2075;51.062;6.920;2023-06-14T02:14:46;7.90;;;7.17;;
4122;SDS011;2075;51.062;6.920;2023-06-14T02:17:32;14.33;;;7.40;;
4122;SDS011;2075;51.062;6.920;2023-06-14T02:20:22;8.27;;;7.47;;
4122;SDS011;2075;51.062;6.920;2023-06-14T02:23:08;13.43;;;8.13;;
4122;SDS011;2075;51.062;6.920;2023-06-14T02:25:53;8.90;;;7.93;;
4122;SDS011;2075;51.062;6.920;2023-06-14T02:28:39;10.00;;;7.03;;
4122;SDS011;2075;51.062;6.920;2023-06-14T02:31:27;8.87;;;7.97;;
4122;SDS011;2075;51.062;6.920;2023-06-14T02:34:13;9.23;;;7.60;;
4122;SDS011;2075;51.062;6.920;2023-06-14T02:37:00;9.80;;;7.60;;
4122;SDS011;2075;51.062;6.920;2023-06-14T02:39:46;9.77;;;8.17;;
4122;SDS011;2075;51.062;6.920;2023-06-14T02:42:32;9.70;;;7.53;;
4122;SDS011;2075;51.062;6.920;2023-06-14T02:45:17;8.60;;;7.73;;
4122;SDS011;2075;51.062;6.920;2023-06-14T02:48:04;14.30;;;7.87;;
4122;SDS011;2075;51.062;6.920;2023-06-14T02:50:50;11.70;;;8.10;;
4122;SDS011;2075;51.062;6.920;2023-06-14T02:53:36;8.90;;;7.77;;
4122;SDS011;2075;51.062;6.920;2023-06-14T02:56:21;13.77;;;9.10;;
4122;SDS011;2075;51.062;6.920;2023-06-14T02:59:07;11.23;;;8.20;;
4122;SDS011;2075;51.062;6.920;2023-06-14T03:01:53;9.40;;;8.43;;
4122;SDS011;2075;51.062;6.920;2023-06-14T03:04:40;10.57;;;7.43;;
4122;SDS011;2075;51.062;6.920;2023-06-14T03:07:31;10.63;;;8.40;;
4122;SDS011;2075;51.062;6.920;2023-06-14T03:10:18;12.23;;;7.77;;
4122;SDS011;2075;51.062;6.920;2023-06-14T03:13:06;11.03;;;6.50;;
4122;SDS011;2075;51.062;6.920;2023-06-14T03:15:51;8.97;;;6.73;;
4122;SDS011;2075;51.062;6.920;2023-06-14T03:18:38;8.43;;;7.27;;
4122;SDS011;2075;51.062;6.920;2023-06-14T03:21:26;11.30;;;7.40;;
4122;SDS011;2075;51.062;6.920;2023-06-14T03:24:14;9.50;;;8.20;;
4122;SDS011;2075;51.062;6.920;2023-06-14T03:27:01;14.07;;;7.43;;
4122;SDS011;2075;51.062;6.920;2023-06-14T03:29:47;9.10;;;7.93;;
4122;SDS011;2075;51.062;6.920;2023-06-14T03:32:32;9.13;;;7.17;;
4122;SDS011;2075;51.062;6.920;2023-06-14T03:35:18;8.73;;;7.03;;
4122;SDS011;2075;51.062;6.920;2023-06-14T03:38:07;11.67;;;7.70;;
4122;SDS011;2075;51.062;6.920;2023-06-14T03:40:53;13.87;;;8.30;;
4122;SDS011;2075;51.062;6.920;2023-06-14T03:43:38;11.57;;;8.17;;
4122;SDS011;2075;51.062;6.920;2023-06-14T03:46:24;15.13;;;8.00;;
4122;SDS011;2075;51.062;6.920;2023-06-14T03:49:10;11.70;;;8.00;;
4122;SDS011;2075;51.062;6.920;2023-06-14T03:51:56;14.83;;;11.87;;
4122;SDS011;2075;51.062;6.920;2023-06-14T03:54:44;18.67;;;8.77;;
4122;SDS011;2075;51.062;6.920;2023-06-14T03:57:31;10.60;;;8.30;;
4122;SDS011;2075;51.062;6.920;2023-06-14T04:00:17;11.23;;;7.93;;
4122;SDS011;2075;51.062;6.920;2023-06-14T04:03:02;10.83;;;8.27;;
4122;SDS011;2075;51.062;6.920;2023-06-14T04:05:49;15.97;;;7.97;;
4122;SDS011;2075;51.062;6.920;2023-06-14T04:08:35;18.53;;;8.30;;
4122;SDS011;2075;51.062;6.920;2023-06-14T04:11:25;20.37;;;10.93;;
4122;SDS011;2075;51.062;6.920;2023-06-14T04:14:10;11.87;;;8.83;;
4122;SDS011;2075;51.062;6.920;2023-06-14T04:16:55;12.30;;;7.80;;
4122;SDS011;2075;51.062;6.920;2023-06-14T04:19:41;14.60;;;8.00;;
4122;SDS011;2075;51.062;6.920;2023-06-14T04:22:26;15.13;;;8.80;;
4122;SDS011;2075;51.062;6.920;2023-06-14T04:25:14;14.63;;;8.50;;
4122;SDS011;2075;51.062;6.920;2023-06-14T04:28:02;10.17;;;7.50;;
4122;SDS011;2075;51.062;6.920;2023-06-14T04:30:49;12.97;;;8.80;;
4122;SDS011;2075;51.062;6.920;2023-06-14T04:33:36;11.30;;;7.77;;
4122;SDS011;2075;51.062;6.920;2023-06-14T04:36:29;9.07;;;8.17;;
4122;SDS011;2075;51.062;6.920;2023-06-14T04:39:16;10.13;;;7.40;;
4122;SDS011;2075;51.062;6.920;2023-06-14T04:42:03;13.97;;;8.20;;
4122;SDS011;2075;51.062;6.920;2023-06-14T04:44:53;12.70;;;7.83;;
4122;SDS011;2075;51.062;6.920;2023-06-14T04:47:40;10.30;;;8.27;;
4122;SDS011;2075;51.062;6.920;2023-06-14T04:50:26;9.77;;;7.33;;
4122;SDS011;2075;51.062;6.920;2023-06-14T04:53:13;10.00;;;8.73;;
4122;SDS011;2075;51.062;6.920;2023-06-14T04:55:59;9.33;;;7.70;;
4122;SDS011;2075;51.062;6.920;2023-06-14T04:58:44;8.37;;;7.50;;
4122;SDS011;2075;51.062;6.920;2023-06-14T05:01:31;12.90;;;6.70;;
4122;SDS011;2075;51.062;6.920;2023-06-14T05:04:17;12.77;;;7.67;;
4122;SDS011;2075;51.062;6.920;2023-06-14T05:07:06;14.27;;;6.67;;
4122;SDS011;2075;51.062;6.920;2023-06-14T05:09:52;16.53;;;6.90;;
4122;SDS011;2075;51.062;6.920;2023-06-14T05:12:38;12.30;;;5.90;;
4122;SDS011;2075;51.062;6.920;2023-06-14T05:15:26;11.60;;;5.80;;
4122;SDS011;2075;51.062;6.920;2023-06-14T05:18:14;7.30;;;4.80;;
4122;SDS011;2075;51.062;6.920;2023-06-14T05:21:00;12.20;;;5.60;;
4122;SDS011;2075;51.062;6.920;2023-06-14T05:23:48;7.60;;;4.77;;
4122;SDS011;2075;51.062;6.920;2023-06-14T05:26:37;7.73;;;4.60;;
4122;SDS011;2075;51.062;6.920;2023-06-14T05:29:23;6.28;;;4.50;;
4122;SDS011;2075;51.062;6.920;2023-06-14T05:32:09;5.10;;;3.72;;
4122;SDS011;2075;51.062;6.920;2023-06-14T05:34:56;4.50;;;4.00;;
4122;SDS011;2075;51.062;6.920;2023-06-14T05:37:44;5.70;;;3.88;;
4122;SDS011;2075;51.062;6.920;2023-06-14T05:40:29;5.75;;;3.45;;
4122;SDS011;2075;51.062;6.920;2023-06-14T05:43:15;12.30;;;3.90;;
4122;SDS011;2075;51.062;6.920;2023-06-14T05:46:00;4.13;;;3.83;;
4122;SDS011;2075;51.062;6.920;2023-06-14T05:48:46;6.95;;;4.07;;
4122;SDS011;2075;51.062;6.920;2023-06-14T05:51:33;3.22;;;3.13;;
4122;SDS011;2075;51.062;6.920;2023-06-14T05:54:18;8.77;;;3.65;;
4122;SDS011;2075;51.062;6.920;2023-06-14T05:57:04;4.03;;;3.70;;
4122;SDS011;2075;51.062;6.920;2023-06-14T05:59:50;3.72;;;3.42;;
4122;SDS011;2075;51.062;6.920;2023-06-14T06:02:35;3.10;;;3.00;;
4122;SDS011;2075;51.062;6.920;2023-06-14T06:05:21;6.80;;;3.53;;
4122;SDS011;2075;51.062;6.920;2023-06-14T06:08:08;5.32;;;3.53;;
4122;SDS011;2075;51.062;6.920;2023-06-14T06:10:53;4.82;;;3.42;;
4122;SDS011;2075;51.062;6.920;2023-06-14T06:13:39;3.80;;;3.60;;
4122;SDS011;2075;51.062;6.920;2023-06-14T06:16:25;3.60;;;3.30;;
4122;SDS011;2075;51.062;6.920;2023-06-14T06:19:10;4.10;;;3.75;;
4122;SDS011;2075;51.062;6.920;2023-06-14T06:21:56;4.75;;;3.40;;
4122;SDS011;2075;51.062;6.920;2023-06-14T06:24:48;7.45;;;3.30;;
4122;SDS011;2075;51.062;6.920;2023-06-14T06:27:33;3.78;;;3.20;;
4122;SDS011;2075;51.062;6.920;2023-06-14T06:30:21;2.97;;;2.88;;
4122;SDS011;2075;51.062;6.920;2023-06-14T06:33:07;5.85;;;3.05;;
4122;SDS011;2075;51.062;6.920;2023-06-14T06:35:52;3.20;;;2.90;;
4122;SDS011;2075;51.062;6.920;2023-06-14T06:38:38;7.97;;;2.90;;
4122;SDS011;2075;51.062;6.920;2023-06-14T06:41:25;3.20;;;2.80;;
4122;SDS011;2075;51.062;6.920;2023-06-14T06:44:10;2.55;;;2.35;;
4122;SDS011;2075;51.062;6.920;2023-06-14T06:46:57;4.32;;;2.50;;
4122;SDS011;2075;51.062;6.920;2023-06-14T06:49:42;4.60;;;2.60;;
4122;SDS011;2075;51.062;6.920;2023-06-14T06:52:28;3.88;;;2.85;;
4122;SDS011;2075;51.062;6.920;2023-06-14T06:55:14;4.00;;;2.90;;
4122;SDS011;2075;51.062;6.920;2023-06-14T06:58:00;3.80;;;3.17;;
4122;SDS011;2075;51.062;6.920;2023-06-14T07:00:48;4.35;;;2.78;;
4122;SDS011;2075;51.062;6.920;2023-06-14T07:03:34;3.20;;;2.63;;
4122;SDS011;2075;51.062;6.920;2023-06-14T07:06:19;2.33;;;2.22;;
4122;SDS011;2075;51.062;6.920;2023-06-14T07:09:05;4.15;;;2.58;;
4122;SDS011;2075;51.062;6.920;2023-06-14T07:11:56;3.10;;;2.30;;
4122;SDS011;2075;51.062;6.920;2023-06-14T07:14:42;3.03;;;2.43;;
4122;SDS011;2075;51.062;6.920;2023-06-14T07:17:28;4.20;;;2.63;;
4122;SDS011;2075;51.062;6.920;2023-06-14T07:20:14;2.10;;;2.00;;
4122;SDS011;2075;51.062;6.920;2023-06-14T07:23:00;2.93;;;2.73;;
4122;SDS011;2075;51.062;6.920;2023-06-14T07:25:46;7.00;;;2.58;;
4122;SDS011;2075;51.062;6.920;2023-06-14T07:28:31;2.33;;;2.23;;
4122;SDS011;2075;51.062;6.920;2023-06-14T07:31:18;2.17;;;2.00;;
4122;SDS011;2075;51.062;6.920;2023-06-14T07:34:03;2.53;;;2.30;;
4122;SDS011;2075;51.062;6.920;2023-06-14T07:36:49;2.22;;;2.05;;
4122;SDS011;2075;51.062;6.920;2023-06-14T07:39:35;2.58;;;1.80;;
4122;SDS011;2075;51.062;6.920;2023-06-14T07:42:20;2.03;;;2.03;;
4122;SDS011;2075;51.062;6.920;2023-06-14T07:45:06;5.45;;;2.17;;
4122;SDS011;2075;51.062;6.920;2023-06-14T07:47:53;6.47;;;1.63;;
4122;SDS011;2075;51.062;6.920;2023-06-14T07:50:39;1.67;;;1.57;;
4122;SDS011;2075;51.062;6.920;2023-06-14T07:53:24;1.90;;;1.73;;
4122;SDS011;2075;51.062;6.920;2023-06-14T07:56:10;4.60;;;1.90;;
4122;SDS011;2075;51.062;6.920;2023-06-14T07:58:55;1.93;;;1.80;;
4122;SDS011;2075;51.062;6.920;2023-06-14T08:01:41;2.70;;;2.60;;
4122;SDS011;2075;51.062;6.920;2023-06-14T08:04:33;6.53;;;1.90;;
4122;SDS011;2075;51.062;6.920;2023-06-14T08:07:18;1.60;;;1.60;;
4122;SDS011;2075;51.062;6.920;2023-06-14T08:10:04;1.70;;;1.70;;
4122;SDS011;2075;51.062;6.920;2023-06-14T08:12:50;2.00;;;2.00;;
4122;SDS011;2075;51.062;6.920;2023-06-14T08:15:36;2.63;;;2.30;;
4122;SDS011;2075;51.062;6.920;2023-06-14T08:18:21;4.10;;;2.27;;
4122;SDS011;2075;51.062;6.920;2023-06-14T08:21:08;2.60;;;2.23;;
4122;SDS011;2075;51.062;6.920;2023-06-14T08:23:53;2.20;;;2.00;;
4122;SDS011;2075;51.062;6.920;2023-06-14T08:26:39;1.80;;;1.70;;
4122;SDS011;2075;51.062;6.920;2023-06-14T08:29:24;1.90;;;1.90;;
4122;SDS011;2075;51.062;6.920;2023-06-14T08:32:13;2.13;;;1.90;;
4122;SDS011;2075;51.062;6.920;2023-06-14T08:34:58;1.90;;;1.90;;
4122;SDS011;2075;51.062;6.920;2023-06-14T08:37:45;2.03;;;1.93;;
4122;SDS011;2075;51.062;6.920;2023-06-14T08:40:30;1.67;;;1.67;;
4122;SDS011;2075;51.062;6.920;2023-06-14T08:43:16;2.20;;;2.10;;
4122;SDS011;2075;51.062;6.920;2023-06-14T08:46:02;1.87;;;1.87;;
4122;SDS011;2075;51.062;6.920;2023-06-14T08:48:49;2.30;;;2.10;;
4122;SDS011;2075;51.062;6.920;2023-06-14T08:51:36;2.00;;;2.00;;
4122;SDS011;2075;51.062;6.920;2023-06-14T08:54:23;2.83;;;1.93;;
4122;SDS011;2075;51.062;6.920;2023-06-14T08:57:11;2.80;;;2.23;;
4122;SDS011;2075;51.062;6.920;2023-06-14T08:59:59;2.10;;;2.00;;
4122;SDS011;2075;51.062;6.920;2023-06-14T09:02:53;1.90;;;1.90;;
4122;SDS011;2075;51.062;6.920;2023-06-14T09:05:41;2.17;;;2.00;;
4122;SDS011;2075;51.062;6.920;2023-06-14T09:08:27;3.77;;;2.60;;
4122;SDS011;2075;51.062;6.920;2023-06-14T09:11:16;2.33;;;2.03;;
4122;SDS011;2075;51.062;6.920;2023-06-14T09:14:03;2.77;;;2.47;;
4122;SDS011;2075;51.062;6.920;2023-06-14T09:16:52;2.63;;;2.53;;
4122;SDS011;2075;51.062;6.920;2023-06-14T09:19:37;4.60;;;2.67;;
4122;SDS011;2075;51.062;6.920;2023-06-14T09:22:25;2.70;;;2.50;;
4122;SDS011;2075;51.062;6.920;2023-06-14T09:25:14;3.40;;;2.70;;
4122;SDS011;2075;51.062;6.920;2023-06-14T09:28:10;2.43;;;2.30;;
4122;SDS011;2075;51.062;6.920;2023-06-14T09:30:57;4.17;;;2.40;;
4122;SDS011;2075;51.062;6.920;2023-06-14T09:33:42;2.53;;;2.33;;
4122;SDS011;2075;51.062;6.920;2023-06-14T09:36:31;2.63;;;2.30;;
4122;SDS011;2075;51.062;6.920;2023-06-14T09:39:18;2.43;;;2.23;;
4122;SDS011;2075;51.062;6.920;2023-06-14T09:42:05;2.10;;;2.00;;
4122;SDS011;2075;51.062;6.920;2023-06-14T09:45:05;2.10;;;1.90;;
4122;SDS011;2075;51.062;6.920;2023-06-14T09:47:52;2.13;;;2.03;;
4122;SDS011;2075;51.062;6.920;2023-06-14T09:50:42;2.20;;;2.03;;
4122;SDS011;2075;51.062;6.920;2023-06-14T09:53:30;2.00;;;1.90;;
4122;SDS011;2075;51.062;6.920;2023-06-14T09:56:18;2.50;;;1.90;;
4122;SDS011;2075;51.062;6.920;2023-06-14T09:59:09;2.00;;;1.90;;
4122;SDS011;2075;51.062;6.920;2023-06-14T10:01:59;3.30;;;2.10;;
4122;SDS011;2075;51.062;6.920;2023-06-14T10:04:56;6.00;;;2.67;;
4122;SDS011;2075;51.062;6.920;2023-06-14T10:07:48;7.50;;;2.40;;
4122;SDS011;2075;51.062;6.920;2023-06-14T10:10:38;7.27;;;2.83;;
4122;SDS011;2075;51.062;6.920;2023-06-14T10:13:25;2.73;;;2.53;;
4122;SDS011;2075;51.062;6.920;2023-06-14T10:16:12;4.60;;;3.00;;
4122;SDS011;2075;51.062;6.920;2023-06-14T10:19:06;3.23;;;2.93;;
4122;SDS011;2075;51.062;6.920;2023-06-14T10:22:00;2.97;;;2.47;;
4122;SDS011;2075;51.062;6.920;2023-06-14T10:24:48;2.70;;;2.60;;
4122;SDS011;2075;51.062;6.920;2023-06-14T10:27:34;3.23;;;2.60;;
4122;SDS011;2075;51.062;6.920;2023-06-14T10:30:25;6.13;;;2.90;;
4122;SDS011;2075;51.062;6.920;2023-06-14T10:33:11;4.00;;;2.70;;
4122;SDS011;2075;51.062;6.920;2023-06-14T10:36:09;3.43;;;2.83;;
4122;SDS011;2075;51.062;6.920;2023-06-14T10:39:05;5.50;;;3.03;;
4122;SDS011;2075;51.062;6.920;2023-06-14T10:41:53;14.80;;;2.93;;
4122;SDS011;2075;51.062;6.920;2023-06-14T10:44:40;2.80;;;2.50;;
4122;SDS011;2075;51.062;6.920;2023-06-14T10:47:27;2.57;;;2.40;;
4122;SDS011;2075;51.062;6.920;2023-06-14T10:50:14;2.83;;;2.63;;
4122;SDS011;2075;51.062;6.920;2023-06-14T10:53:06;3.60;;;2.77;;
4122;SDS011;2075;51.062;6.920;2023-06-14T10:56:07;5.90;;;3.10;;
4122;SDS011;2075;51.062;6.920;2023-06-14T10:58:56;4.20;;;3.17;;
4122;SDS011;2075;51.062;6.920;2023-06-14T11:01:46;7.35;;;2.80;;
4122;SDS011;2075;51.062;6.920;2023-06-14T11:04:46;3.83;;;2.78;;
4122;SDS011;2075;51.062;6.920;2023-06-14T11:07:37;3.20;;;2.90;;
4122;SDS011;2075;51.062;6.920;2023-06-14T11:10:35;3.33;;;3.03;;
4122;SDS011;2075;51.062;6.920;2023-06-14T11:13:22;2.87;;;2.67;;
4122;SDS011;2075;51.062;6.920;2023-06-14T11:16:10;4.37;;;2.30;;
4122;SDS011;2075;51.062;6.920;2023-06-14T11:18:57;3.03;;;2.83;;
4122;SDS011;2075;51.062;6.920;2023-06-14T11:21:42;2.73;;;2.63;;
4122;SDS011;2075;51.062;6.920;2023-06-14T11:24:32;2.97;;;2.50;;
4122;SDS011;2075;51.062;6.920;2023-06-14T11:27:19;2.33;;;2.23;;
4122;SDS011;2075;51.062;6.920;2023-06-14T11:30:07;2.60;;;2.43;;
4122;SDS011;2075;51.062;6.920;2023-06-14T11:32:54;3.40;;;2.53;;
4122;SDS011;2075;51.062;6.920;2023-06-14T11:35:40;7.10;;;3.37;;
4122;SDS011;2075;51.062;6.920;2023-06-14T11:38:26;5.00;;;3.00;;
4122;SDS011;2075;51.062;6.920;2023-06-14T11:41:12;2.80;;;2.60;;
4122;SDS011;2075;51.062;6.920;2023-06-14T11:43:59;6.70;;;2.60;;
4122;SDS011;2075;51.062;6.920;2023-06-14T11:46:45;3.40;;;2.40;;
4122;SDS011;2075;51.062;6.920;2023-06-14T11:49:34;2.60;;;2.40;;
4122;SDS011;2075;51.062;6.920;2023-06-14T11:52:23;6.07;;;2.73;;
4122;SDS011;2075;51.062;6.920;2023-06-14T11:55:09;7.83;;;2.73;;
4122;SDS011;2075;51.062;6.920;2023-06-14T11:57:54;2.60;;;2.50;;
4122;SDS011;2075;51.062;6.920;2023-06-14T12:00:42;2.70;;;2.57;;
4122;SDS011;2075;51.062;6.920;2023-06-14T12:03:28;5.60;;;2.20;;
4122;SDS011;2075;51.062;6.920;2023-06-14T12:06:15;1.97;;;1.87;;
4122;SDS011;2075;51.062;6.920;2023-06-14T12:09:03;8.20;;;2.03;;
4122;SDS011;2075;51.062;6.920;2023-06-14T12:11:50;3.63;;;2.00;;
4122;SDS011;2075;51.062;6.920;2023-06-14T12:14:46;2.20;;;2.10;;
4122;SDS011;2075;51.062;6.920;2023-06-14T12:17:34;2.27;;;1.90;;
4122;SDS011;2075;51.062;6.920;2023-06-14T12:20:28;6.03;;;1.93;;
4122;SDS011;2075;51.062;6.920;2023-06-14T12:23:15;4.40;;;2.30;;
4122;SDS011;2075;51.062;6.920;2023-06-14T12:26:01;5.53;;;2.07;;
4122;SDS011;2075;51.062;6.920;2023-06-14T12:28:51;1.93;;;1.93;;
4122;SDS011;2075;51.062;6.920;2023-06-14T12:31:37;3.13;;;1.70;;
4122;SDS011;2075;51.062;6.920;2023-06-14T12:34:24;2.17;;;1.97;;
4122;SDS011;2075;51.062;6.920;2023-06-14T12:37:12;2.10;;;2.00;;
4122;SDS011;2075;51.062;6.920;2023-06-14T12:39:58;2.03;;;1.80;;
4122;SDS011;2075;51.062;6.920;2023-06-14T12:42:49;2.40;;;1.67;;
4122;SDS011;2075;51.062;6.920;2023-06-14T12:45:35;1.60;;;1.60;;
4122;SDS011;2075;51.062;6.920;2023-06-14T12:48:20;1.53;;;1.53;;
4122;SDS011;2075;51.062;6.920;2023-06-14T12:51:08;1.67;;;1.63;;
4122;SDS011;2075;51.062;6.920;2023-06-14T12:53:53;1.93;;;1.83;;
4122;SDS011;2075;51.062;6.920;2023-06-14T12:56:39;1.50;;;1.50;;
4122;SDS011;2075;51.062;6.920;2023-06-14T12:59:26;1.80;;;1.70;;
4122;SDS011;2075;51.062;6.920;2023-06-14T13:02:21;1.70;;;1.70;;
4122;SDS011;2075;51.062;6.920;2023-06-14T13:05:12;1.83;;;1.73;;
4122;SDS011;2075;51.062;6.920;2023-06-14T13:07:58;1.90;;;1.73;;
4122;SDS011;2075;51.062;6.920;2023-06-14T13:10:44;2.27;;;2.17;;
4122;SDS011;2075;51.062;6.920;2023-06-14T13:13:30;1.70;;;1.60;;
4122;SDS011;2075;51.062;6.920;2023-06-14T13:16:19;3.43;;;1.70;;
4122;SDS011;2075;51.062;6.920;2023-06-14T13:19:05;1.80;;;1.70;;
4122;SDS011;2075;51.062;6.920;2023-06-14T13:21:51;2.07;;;1.97;;
4122;SDS011;2075;51.062;6.920;2023-06-14T13:24:38;2.07;;;1.73;;
4122;SDS011;2075;51.062;6.920;2023-06-14T13:27:27;1.93;;;1.83;;
4122;SDS011;2075;51.062;6.920;2023-06-14T13:30:13;2.43;;;2.10;;
4122;SDS011;2075;51.062;6.920;2023-06-14T13:33:01;1.80;;;1.80;;
4122;SDS011;2075;51.062;6.920;2023-06-14T13:35:46;2.80;;;2.00;;
4122;SDS011;2075;51.062;6.920;2023-06-14T13:38:32;2.20;;;2.10;;
4122;SDS011;2075;51.062;6.920;2023-06-14T13:41:22;1.80;;;1.80;;
4122;SDS011;2075;51.062;6.920;2023-06-14T13:44:08;2.10;;;2.00;;
4122;SDS011;2075;51.062;6.920;2023-06-14T13:46:55;2.17;;;2.07;;
4122;SDS011;2075;51.062;6.920;2023-06-14T13:49:40;1.80;;;1.70;;
4122;SDS011;2075;51.062;6.920;2023-06-14T13:52:26;2.40;;;2.30;;
4122;SDS011;2075;51.062;6.920;2023-06-14T13:55:11;2.97;;;2.20;;
4122;SDS011;2075;51.062;6.920;2023-06-14T13:57:59;2.40;;;2.13;;
4122;SDS011;2075;51.062;6.920;2023-06-14T14:00:45;1.80;;;1.80;;
4122;SDS011;2075;51.062;6.920;2023-06-14T14:03:30;2.70;;;2.50;;
4122;SDS011;2075;51.062;6.920;2023-06-14T14:06:16;2.50;;;2.30;;
4122;SDS011;2075;51.062;6.920;2023-06-14T14:09:01;2.47;;;2.27;;
4122;SDS011;2075;51.062;6.920;2023-06-14T14:11:47;2.43;;;2.30;;
4122;SDS011;2075;51.062;6.920;2023-06-14T14:14:35;2.20;;;2.20;;
4122;SDS011;2075;51.062;6.920;2023-06-14T14:17:22;3.87;;;2.37;;
4122;SDS011;2075;51.062;6.920;2023-06-14T14:20:11;2.47;;;2.37;;
4122;SDS011;2075;51.062;6.920;2023-06-14T14:22:59;2.17;;;2.00;;
4122;SDS011;2075;51.062;6.920;2023-06-14T14:25:46;2.97;;;2.43;;
4122;SDS011;2075;51.062;6.920;2023-06-14T14:28:32;2.60;;;2.40;;
4122;SDS011;2075;51.062;6.920;2023-06-14T14:31:18;2.40;;;2.40;;
4122;SDS011;2075;51.062;6.920;2023-06-14T14:34:04;2.50;;;2.40;;
4122;SDS011;2075;51.062;6.920;2023-06-14T14:36:49;2.67;;;2.57;;
4122;SDS011;2075;51.062;6.920;2023-06-14T14:39:36;2.50;;;2.10;;
4122;SDS011;2075;51.062;6.920;2023-06-14T14:42:22;2.37;;;2.27;;
4122;SDS011;2075;51.062;6.920;2023-06-14T14:45:07;3.90;;;2.40;;
4122;SDS011;2075;51.062;6.920;2023-06-14T14:47:55;2.40;;;2.30;;
4122;SDS011;2075;51.062;6.920;2023-06-14T14:50:40;6.20;;;2.67;;
4122;SDS011;2075;51.062;6.920;2023-06-14T14:53:26;2.60;;;2.43;;
4122;SDS011;2075;51.062;6.920;2023-06-14T14:56:11;2.83;;;2.63;;
4122;SDS011;2075;51.062;6.920;2023-06-14T14:58:56;2.73;;;2.50;;
4122;SDS011;2075;51.062;6.920;2023-06-14T15:01:41;3.40;;;3.20;;
4122;SDS011;2075;51.062;6.920;2023-06-14T15:04:28;2.20;;;2.10;;
4122;SDS011;2075;51.062;6.920;2023-06-14T15:07:14;2.60;;;2.50;;
4122;SDS011;2075;51.062;6.920;2023-06-14T15:09:59;2.70;;;2.60;;
4122;SDS011;2075;51.062;6.920;2023-06-14T15:12:44;2.80;;;2.60;;
4122;SDS011;2075;51.062;6.920;2023-06-14T15:15:30;2.93;;;2.50;;
4122;SDS011;2075;51.062;6.920;2023-06-14T15:18:15;3.20;;;2.53;;
4122;SDS011;2075;51.062;6.920;2023-06-14T15:21:02;2.97;;;2.50;;
4122;SDS011;2075;51.062;6.920;2023-06-14T15:23:47;2.63;;;2.43;;
4122;SDS011;2075;51.062;6.920;2023-06-14T15:26:33;3.03;;;2.83;;
4122;SDS011;2075;51.062;6.920;2023-06-14T15:29:19;2.50;;;2.30;;
4122;SDS011;2075;51.062;6.920;2023-06-14T15:32:05;2.80;;;2.63;;
4122;SDS011;2075;51.062;6.920;2023-06-14T15:34:51;2.33;;;2.23;;
4122;SDS011;2075;51.062;6.920;2023-06-14T15:37:38;3.23;;;3.00;;
4122;SDS011;2075;51.062;6.920;2023-06-14T15:40:24;2.70;;;2.57;;
4122;SDS011;2075;51.062;6.920;2023-06-14T15:43:11;3.10;;;2.90;;
4122;SDS011;2075;51.062;6.920;2023-06-14T15:45:57;4.27;;;2.30;;
4122;SDS011;2075;51.062;6.920;2023-06-14T15:48:43;5.47;;;2.60;;
4122;SDS011;2075;51.062;6.920;2023-06-14T15:51:28;2.80;;;2.60;;
4122;SDS011;2075;51.062;6.920;2023-06-14T15:54:15;2.47;;;2.37;;
4122;SDS011;2075;51.062;6.920;2023-06-14T15:57:01;3.23;;;2.50;;
4122;SDS011;2075;51.062;6.920;2023-06-14T15:59:46;2.97;;;2.40;;
4122;SDS011;2075;51.062;6.920;2023-06-14T16:02:32;3.27;;;3.07;;
4122;SDS011;2075;51.062;6.920;2023-06-14T16:05:17;2.80;;;2.60;;
4122;SDS011;2075;51.062;6.920;2023-06-14T16:08:03;2.50;;;2.40;;
4122;SDS011;2075;51.062;6.920;2023-06-14T16:10:50;2.37;;;2.27;;
4122;SDS011;2075;51.062;6.920;2023-06-14T16:13:35;3.10;;;2.90;;
4122;SDS011;2075;51.062;6.920;2023-06-14T16:16:21;6.57;;;2.80;;
4122;SDS011;2075;51.062;6.920;2023-06-14T16:19:06;2.83;;;2.63;;
4122;SDS011;2075;51.062;6.920;2023-06-14T16:21:52;3.00;;;2.83;;
4122;SDS011;2075;51.062;6.920;2023-06-14T16:24:37;2.77;;;2.67;;
4122;SDS011;2075;51.062;6.920;2023-06-14T16:27:24;3.60;;;2.53;;
4122;SDS011;2075;51.062;6.920;2023-06-14T16:30:10;2.67;;;2.57;;
4122;SDS011;2075;51.062;6.920;2023-06-14T16:32:55;3.00;;;2.80;;
4122;SDS011;2075;51.062;6.920;2023-06-14T16:35:41;3.10;;;2.90;;
4122;SDS011;2075;51.062;6.920;2023-06-14T16:38:26;3.07;;;2.77;;
4122;SDS011;2075;51.062;6.920;2023-06-14T16:41:12;2.70;;;2.60;;
4122;SDS011;2075;51.062;6.920;2023-06-14T16:43:59;3.73;;;2.70;;
4122;SDS011;2075;51.062;6.920;2023-06-14T16:46:47;2.60;;;2.23;;
4122;SDS011;2075;51.062;6.920;2023-06-14T16:49:32;3.53;;;2.50;;
4122;SDS011;2075;51.062;6.920;2023-06-14T16:52:18;2.77;;;2.60;;
4122;SDS011;2075;51.062;6.920;2023-06-14T16:55:03;2.93;;;2.83;;
4122;SDS011;2075;51.062;6.920;2023-06-14T16:57:49;3.40;;;2.53;;
4122;SDS011;2075;51.062;6.920;2023-06-14T17:00:36;4.10;;;3.80;;
4122;SDS011;2075;51.062;6.920;2023-06-14T17:03:21;3.73;;;3.50;;
4122;SDS011;2075;51.062;6.920;2023-06-14T17:06:06;2.67;;;2.57;;
4122;SDS011;2075;51.062;6.920;2023-06-14T17:08:52;3.10;;;2.87;;
4122;SDS011;2075;51.062;6.920;2023-06-14T17:11:37;2.90;;;2.80;;
4122;SDS011;2075;51.062;6.920;2023-06-14T17:14:24;3.07;;;2.97;;